Time;durP1;ratioP1;P1;durP2;ratioP2;P2;SDS_P1;SDS_P2;PMS_P1;PMS_P2;Temp;Humidity;BMP_temperature;BMP_pressure;BME280_temperature;BME280_humidity;BME280_pressure;Samples;Min_cycle;Max_cycle;Signal;HPM_P1;HPM_P2
2022/01/25 00:28:23;;;;;;;;;73.67;54.00;;;;;;;;6326298;22;28287;-85
2022/01/25 00:31:02;;;;;;;;;76.75;53.75;;;;;;;;6329438;22;28339;-85
2022/01/25 00:33:28;;;;;;;;;77.50;56.75;;;;;;;;6328684;22;28405;-85
2022/01/25 00:35:54;;;;;;;;;77.00;57.75;;;;;;;;6329435;22;28345;-85
2022/01/25 00:38:19;;;;;;;;;78.25;56.50;;;;;;;;6324214;22;29450;-85
2022/01/25 00:40:44;;;;;;;;;81.50;58.00;;;;;;;;6329419;22;28669;-85
2022/01/25 00:43:10;;;;;;;;;76.00;59.67;;;;;;;;6330330;22;28240;-85
2022/01/25 00:45:35;;;;;;;;;80.33;59.00;;;;;;;;6329743;22;28401;-85
2022/01/25 00:48:03;;;;;;;;;78.33;57.00;;;;;;;;6329330;22;28392;-85
2022/01/25 00:50:36;;;;;;;;;73.75;56.75;;;;;;;;6330418;22;28617;-85
2022/01/25 00:55:26;;;;;;;;;82.67;59.67;;;;;;;;6326620;22;28263;-85
2022/01/25 01:01:55;;;;;;;;;81.50;58.00;;;;;;;;6113733;22;115929752;-85
2022/01/25 01:06:36;;;;;;;;;;;;;;;;;;1965727;22;108455754;-84
2022/01/25 01:12:19;;;;;;;;;52.50;43.50;;;;;;;;3;102976752;118849592;-84
2022/01/25 01:34:20;;;;;;;;;67.25;49.50;;;;;;;;6317791;22;299975;-85
2022/01/25 01:37:15;;;;;;;;;63.75;49.50;;;;;;;;6328456;22;28271;-85
2022/01/25 01:44:53;;;;;;;;;55.00;41.33;;;;;;;;6330271;22;28302;-85
2022/01/25 01:47:32;;;;;;;;;60.25;48.50;;;;;;;;6329676;22;28487;-85
2022/01/25 01:50:00;;;;;;;;;65.25;47.25;;;;;;;;6330017;22;28187;-85
2022/01/25 01:52:27;;;;;;;;;50.25;39.00;;;;;;;;6329716;22;28270;-85
2022/01/25 01:54:53;;;;;;;;;66.50;46.50;;;;;;;;6301407;22;28507;-85
2022/01/25 01:57:18;;;;;;;;;62.00;44.50;;;;;;;;6330170;22;28396;-85
2022/01/25 01:59:43;;;;;;;;;63.67;47.00;;;;;;;;6301986;22;28557;-85
2022/01/25 02:02:09;;;;;;;;;58.33;42.00;;;;;;;;6302560;22;28350;-85
2022/01/25 02:04:34;;;;;;;;;60.00;43.67;;;;;;;;6330573;22;28342;-85
2022/01/25 02:06:59;;;;;;;;;62.25;45.00;;;;;;;;6330285;22;28302;-85
2022/01/25 02:09:24;;;;;;;;;64.75;45.25;;;;;;;;6330053;22;28230;-85
2022/01/25 02:11:50;;;;;;;;;67.25;43.75;;;;;;;;6330076;22;28224;-85
2022/01/25 02:14:16;;;;;;;;;60.75;46.50;;;;;;;;6329765;22;28147;-85
2022/01/25 02:24:43;;;;;;;;;55.50;43.25;;;;;;;;6329650;22;28401;-85
2022/01/25 02:27:08;;;;;;;;;59.25;42.50;;;;;;;;6330135;22;28501;-85
2022/01/25 02:29:33;;;;;;;;;33.75;23.75;;;;;;;;6301897;22;29615;-85
2022/01/25 02:31:59;;;;;;;;;57.75;40.50;;;;;;;;6301912;22;28362;-85
2022/01/25 02:34:24;;;;;;;;;55.33;42.00;;;;;;;;6329515;22;28299;-85
2022/01/25 02:36:56;;;;;;;;;44.75;38.00;;;;;;;;6329818;22;29553;-85
2022/01/25 02:39:22;;;;;;;;;62.00;43.75;;;;;;;;6329311;22;28582;-85
2022/01/25 02:41:47;;;;;;;;;58.67;38.67;;;;;;;;6301765;22;28362;-85
2022/01/25 02:44:17;;;;;;;;;42.00;35.33;;;;;;;;6330293;22;28423;-85
2022/01/25 02:49:08;;;;;;;;;57.00;41.67;;;;;;;;6330107;22;28225;-85
2022/01/25 02:51:38;;;;;;;;;59.50;41.75;;;;;;;;6302160;22;28181;-85
2022/01/25 02:54:04;;;;;;;;;46.25;37.50;;;;;;;;6329750;22;28354;-85
2022/01/25 02:56:30;;;;;;;;;57.75;43.25;;;;;;;;6301595;22;28349;-85
2022/01/25 02:58:55;;;;;;;;;49.25;41.25;;;;;;;;6329027;22;28331;-85
2022/01/25 03:01:21;;;;;;;;;50.50;39.75;;;;;;;;6328528;22;28230;-85
2022/01/25 03:03:46;;;;;;;;;57.25;46.00;;;;;;;;6328804;22;28324;-85
2022/01/25 03:06:15;;;;;;;;;58.00;41.75;;;;;;;;6329055;22;29211;-85
2022/01/25 03:08:41;;;;;;;;;45.25;39.75;;;;;;;;6301048;22;28468;-85
2022/01/25 03:11:06;;;;;;;;;57.00;43.33;;;;;;;;6301681;22;28349;-85
2022/01/25 03:13:37;;;;;;;;;62.67;39.67;;;;;;;;6301612;22;28412;-85
2022/01/25 03:16:17;;;;;;;;;52.75;38.25;;;;;;;;6329922;22;28356;-85
2022/01/25 03:18:45;;;;;;;;;56.75;38.50;;;;;;;;6329412;22;28333;-85
2022/01/25 03:23:53;;;;;;;;;50.25;36.75;;;;;;;;6329476;22;28503;-85
2022/01/25 03:26:18;;;;;;;;;11.25;10.25;;;;;;;;6329727;22;29294;-85
2022/01/25 03:28:44;;;;;;;;;57.25;39.50;;;;;;;;6329247;22;28359;-85
2022/01/25 03:31:09;;;;;;;;;59.25;36.75;;;;;;;;6329676;22;28188;-85
2022/01/25 03:33:35;;;;;;;;;53.75;37.50;;;;;;;;6329161;22;28429;-85
2022/01/25 03:36:00;;;;;;;;;45.75;34.25;;;;;;;;6329507;22;28978;-85
2022/01/25 03:38:26;;;;;;;;;48.25;38.25;;;;;;;;6328961;22;28270;-85
2022/01/25 03:40:51;;;;;;;;;47.25;34.00;;;;;;;;6329763;22;28355;-85
2022/01/25 03:43:18;;;;;;;;;62.50;43.00;;;;;;;;6329602;22;28247;-85
2022/01/25 03:45:56;;;;;;;;;58.25;36.00;;;;;;;;6301382;22;29890;-85
2022/01/25 03:50:48;;;;;;;;;48.00;31.67;;;;;;;;6329336;22;28440;-85
2022/01/25 03:53:14;;;;;;;;;67.25;43.25;;;;;;;;6300599;22;28501;-85
2022/01/25 03:55:40;;;;;;;;;51.25;37.75;;;;;;;;6329196;22;28346;-85
2022/01/25 03:58:06;;;;;;;;;60.25;40.00;;;;;;;;6329591;22;28183;-84
2022/01/25 04:00:31;;;;;;;;;59.00;40.50;;;;;;;;6329140;22;28301;-84
2022/01/25 04:03:05;;;;;;;;;62.25;42.25;;;;;;;;6301394;22;28663;-84
2022/01/25 04:06:04;;;;;;;;;50.25;40.50;;;;;;;;6328890;22;29526;-83
2022/01/25 04:08:22;;;;;;;;;56.50;41.50;;;;;;;;6322679;22;28335;-83
2022/01/25 04:10:48;;;;;;;;;51.75;38.50;;;;;;;;6329597;22;28430;-84
2022/01/25 04:13:13;;;;;;;;;60.50;42.25;;;;;;;;6329219;22;28263;-84
2022/01/25 04:15:45;;;;;;;;;44.50;39.50;;;;;;;;6330549;22;28474;-84
2022/01/25 04:26:06;;;;;;;;;46.75;37.75;;;;;;;;6330361;22;28365;-84
2022/01/25 04:28:31;;;;;;;;;46.00;34.00;;;;;;;;6330774;22;28272;-84
2022/01/25 04:30:56;;;;;;;;;52.33;37.33;;;;;;;;6330694;22;28318;-85
2022/01/25 04:33:28;;;;;;;;;61.33;43.33;;;;;;;;6329754;22;28441;-85
2022/01/25 04:49:34;;;;;;;;;48.75;37.25;;;;;;;;6329886;22;28440;-84
2022/01/25 04:57:43;;;;;;;;;51.50;40.00;;;;;;;;6203355;23;28399;-84
2022/01/25 05:00:18;;;;;;;;;58.75;43.75;;;;;;;;6317901;22;28662;-84
2022/01/25 05:05:15;;;;;;;;;49.00;41.33;;;;;;;;6330200;22;28259;-84
2022/01/25 05:08:32;;;;;;;;;55.75;39.25;;;;;;;;6330279;22;28674;-84
2022/01/25 05:10:31;;;;;;;;;54.00;34.25;;;;;;;;6312395;22;28567;-84
2022/01/25 05:18:19;;;;;;;;;57.25;38.50;;;;;;;;6329880;22;28428;-84
2022/01/25 05:23:28;;;;;;;;;58.25;43.50;;;;;;;;6330048;22;28472;-84
2022/01/25 05:25:53;;;;;;;;;55.25;42.25;;;;;;;;6301399;22;29228;-84
2022/01/25 05:28:19;;;;;;;;;59.33;42.00;;;;;;;;6301737;22;28422;-84
2022/01/25 05:30:44;;;;;;;;;54.00;41.00;;;;;;;;6300818;22;28614;-84
2022/01/25 05:33:09;;;;;;;;;58.50;42.00;;;;;;;;6301511;22;28334;-84
2022/01/25 05:35:35;;;;;;;;;50.67;37.33;;;;;;;;6301895;22;28330;-84
2022/01/25 05:38:00;;;;;;;;;60.00;41.00;;;;;;;;6329615;22;28354;-84
2022/01/25 05:45:58;;;;;;;;;59.00;43.25;;;;;;;;6330274;22;28341;-84
2022/01/25 05:48:24;;;;;;;;;61.00;40.75;;;;;;;;6329336;22;28558;-85
2022/01/25 05:50:49;;;;;;;;;72.75;46.75;;;;;;;;6329066;22;28248;-85
2022/01/25 05:53:14;;;;;;;;;60.75;43.75;;;;;;;;6330510;22;28493;-87
2022/01/25 05:55:41;;;;;;;;;50.25;42.50;;;;;;;;6331733;22;28462;-86
2022/01/25 05:58:09;;;;;;;;;52.25;37.50;;;;;;;;6333558;22;28283;-85
2022/01/25 06:00:34;;;;;;;;;56.75;41.75;;;;;;;;6333516;22;28417;-87
2022/01/25 06:03:01;;;;;;;;;54.50;41.75;;;;;;;;6302353;22;28326;-84
2022/01/25 06:05:26;;;;;;;;;62.25;41.00;;;;;;;;6329815;22;28317;-87
2022/01/25 06:07:51;;;;;;;;;62.00;39.67;;;;;;;;6330227;22;29059;-87
2022/01/25 06:10:17;;;;;;;;;61.67;44.67;;;;;;;;6307334;22;29856;-87
2022/01/25 06:12:44;;;;;;;;;47.75;37.50;;;;;;;;6348710;22;27673;-84
2022/01/25 06:15:10;;;;;;;;;61.25;38.25;;;;;;;;6353287;22;28557;-87
2022/01/25 06:17:35;;;;;;;;;53.25;42.75;;;;;;;;6326482;22;30702;-86
2022/01/25 06:20:01;;;;;;;;;56.00;44.00;;;;;;;;6325174;22;27840;-84
2022/01/25 06:22:26;;;;;;;;;48.67;41.00;;;;;;;;6352171;22;27804;-83
2022/01/25 06:24:54;;;;;;;;;48.00;40.00;;;;;;;;6342515;22;27856;-85
2022/01/25 06:27:20;;;;;;;;;52.50;40.25;;;;;;;;6331569;22;28524;-83
2022/01/25 06:29:47;;;;;;;;;51.67;31.67;;;;;;;;6330773;22;28236;-81
2022/01/25 06:32:12;;;;;;;;;62.25;43.25;;;;;;;;6302227;22;28350;-80
2022/01/25 06:34:37;;;;;;;;;57.33;42.67;;;;;;;;6330707;22;28231;-79
2022/01/25 06:37:02;;;;;;;;;67.00;43.33;;;;;;;;6330168;22;29250;-80
2022/01/25 06:39:28;;;;;;;;;61.25;42.75;;;;;;;;6329387;22;28188;-80
2022/01/25 06:41:53;;;;;;;;;57.33;45.00;;;;;;;;6331479;22;28205;-84
2022/01/25 06:44:18;;;;;;;;;59.25;43.25;;;;;;;;6303781;22;28392;-83
2022/01/25 06:46:46;;;;;;;;;55.00;43.33;;;;;;;;6331934;22;29461;-82
2022/01/25 06:49:11;;;;;;;;;53.00;37.50;;;;;;;;6330540;22;27877;-82
2022/01/25 06:51:36;;;;;;;;;57.00;42.75;;;;;;;;6304384;22;28456;-84
2022/01/25 06:54:02;;;;;;;;;63.33;44.67;;;;;;;;6301841;22;28440;-83
2022/01/25 06:56:27;;;;;;;;;48.00;32.33;;;;;;;;6330867;22;28397;-82
2022/01/25 06:58:52;;;;;;;;;64.33;43.33;;;;;;;;6331116;22;28426;-83
2022/01/25 07:01:17;;;;;;;;;63.00;42.33;;;;;;;;6301900;22;28320;-83
2022/01/25 07:03:43;;;;;;;;;60.67;43.33;;;;;;;;6330263;22;28424;-83
2022/01/25 07:06:08;;;;;;;;;51.00;42.00;;;;;;;;6331636;22;28390;-82
2022/01/25 07:08:33;;;;;;;;;62.33;42.00;;;;;;;;6300875;22;28842;-82
2022/01/25 07:10:58;;;;;;;;;63.00;45.00;;;;;;;;6301417;22;28338;-82
2022/01/25 07:13:25;;;;;;;;;60.00;42.67;;;;;;;;6330041;22;28259;-83
2022/01/25 07:15:50;;;;;;;;;64.50;46.50;;;;;;;;6327906;22;28318;-82
2022/01/25 07:18:15;;;;;;;;;64.67;43.67;;;;;;;;6301483;22;29771;-83
2022/01/25 07:20:41;;;;;;;;;67.67;43.67;;;;;;;;6329734;22;28370;-83
2022/01/25 07:23:06;;;;;;;;;57.50;42.50;;;;;;;;6329905;22;28242;-83
2022/01/25 07:25:31;;;;;;;;;68.00;46.67;;;;;;;;6301588;22;29399;-84
2022/01/25 07:27:56;;;;;;;;;67.67;47.00;;;;;;;;6329893;22;28305;-82
2022/01/25 07:30:22;;;;;;;;;62.25;43.75;;;;;;;;6329918;22;28305;-82
2022/01/25 07:32:47;;;;;;;;;63.67;46.00;;;;;;;;6301397;22;28699;-82
2022/01/25 07:35:12;;;;;;;;;66.25;46.75;;;;;;;;6329729;22;28246;-82
2022/01/25 07:37:37;;;;;;;;;68.00;45.00;;;;;;;;6301244;22;28378;-81
2022/01/25 07:40:03;;;;;;;;;66.25;46.00;;;;;;;;6329011;22;28398;-80
2022/01/25 07:42:32;;;;;;;;;63.25;45.00;;;;;;;;6329205;22;28339;-85
2022/01/25 07:44:57;;;;;;;;;69.25;41.50;;;;;;;;6329245;22;28439;-81
2022/01/25 07:47:23;;;;;;;;;52.00;40.00;;;;;;;;6329568;22;28310;-81
2022/01/25 07:49:48;;;;;;;;;62.00;44.33;;;;;;;;6328359;22;29007;-81
2022/01/25 07:52:13;;;;;;;;;65.00;48.33;;;;;;;;6330726;22;28381;-81
2022/01/25 07:54:39;;;;;;;;;65.50;42.25;;;;;;;;6329513;22;28573;-81
2022/01/25 07:57:04;;;;;;;;;50.25;38.75;;;;;;;;6301611;22;28441;-81
2022/01/25 07:59:29;;;;;;;;;63.75;45.75;;;;;;;;6328992;22;28183;-81
2022/01/25 08:01:54;;;;;;;;;68.33;47.67;;;;;;;;6329332;22;28294;-81
2022/01/25 08:04:20;;;;;;;;;72.67;51.33;;;;;;;;6329424;22;28387;-81
2022/01/25 08:06:45;;;;;;;;;66.00;49.00;;;;;;;;6329053;22;28338;-81
2022/01/25 08:09:10;;;;;;;;;71.75;49.00;;;;;;;;6300787;22;28298;-81
2022/01/25 08:11:36;;;;;;;;;66.00;48.00;;;;;;;;6330265;22;28402;-81
2022/01/25 08:14:22;;;;;;;;;70.00;47.50;;;;;;;;6331294;22;29094;-82
2022/01/25 08:16:48;;;;;;;;;68.00;46.25;;;;;;;;6328773;22;28329;-81
2022/01/25 08:19:14;;;;;;;;;69.50;47.75;;;;;;;;6329152;22;28260;-81
2022/01/25 08:21:42;;;;;;;;;61.25;43.75;;;;;;;;6329666;22;28157;-82
2022/01/25 08:24:11;;;;;;;;;69.75;49.25;;;;;;;;6329106;22;28424;-81
2022/01/25 08:26:37;;;;;;;;;68.00;48.50;;;;;;;;6329683;22;28243;-81
2022/01/25 08:29:03;;;;;;;;;67.25;49.00;;;;;;;;6329539;22;28160;-82
2022/01/25 08:31:29;;;;;;;;;68.50;45.25;;;;;;;;6329470;22;28271;-82
2022/01/25 08:33:54;;;;;;;;;71.00;51.00;;;;;;;;6329425;22;29512;-80
2022/01/25 08:36:19;;;;;;;;;67.33;47.33;;;;;;;;6329246;22;28168;-80
2022/01/25 08:38:45;;;;;;;;;59.75;43.75;;;;;;;;6329327;22;28560;-81
2022/01/25 08:41:10;;;;;;;;;70.25;51.00;;;;;;;;6329192;22;28394;-82
2022/01/25 08:43:36;;;;;;;;;70.00;47.50;;;;;;;;6329264;22;28458;-81
2022/01/25 08:46:02;;;;;;;;;55.00;46.00;;;;;;;;6329631;22;28369;-82
2022/01/25 08:48:27;;;;;;;;;67.00;46.00;;;;;;;;6328905;22;28472;-82
2022/01/25 08:50:52;;;;;;;;;74.75;47.75;;;;;;;;6329300;22;28246;-82
2022/01/25 08:53:18;;;;;;;;;70.00;45.33;;;;;;;;6329051;22;28278;-82
2022/01/25 08:55:43;;;;;;;;;68.75;50.00;;;;;;;;6328943;22;28298;-82
2022/01/25 08:58:08;;;;;;;;;64.33;50.00;;;;;;;;6328814;22;28477;-81
2022/01/25 09:00:33;;;;;;;;;66.00;49.00;;;;;;;;6329590;22;28355;-82
2022/01/25 09:03:00;;;;;;;;;64.50;46.75;;;;;;;;6302417;22;31191;-82
2022/01/25 09:05:26;;;;;;;;;60.75;44.25;;;;;;;;6302803;22;28408;-82
2022/01/25 09:07:51;;;;;;;;;64.50;42.75;;;;;;;;6330675;22;28350;-80
2022/01/25 09:10:17;;;;;;;;;68.33;49.00;;;;;;;;6302531;22;28264;-80
2022/01/25 09:12:42;;;;;;;;;70.00;47.00;;;;;;;;6330401;22;28354;-80
2022/01/25 09:15:07;;;;;;;;;64.00;46.33;;;;;;;;6330632;22;28315;-81
2022/01/25 09:17:32;;;;;;;;;66.75;45.75;;;;;;;;6330114;22;28207;-82
2022/01/25 09:20:00;;;;;;;;;52.67;40.33;;;;;;;;6330847;22;28270;-82
2022/01/25 09:22:25;;;;;;;;;71.25;47.25;;;;;;;;6330505;22;28525;-82
2022/01/25 09:24:50;;;;;;;;;69.33;46.67;;;;;;;;6330543;22;28397;-82
2022/01/25 09:27:16;;;;;;;;;60.25;44.75;;;;;;;;6330813;22;28467;-82
2022/01/25 09:29:41;;;;;;;;;66.33;46.67;;;;;;;;6330768;22;28544;-82
2022/01/25 09:32:07;;;;;;;;;66.67;47.33;;;;;;;;6331055;22;29394;-82
2022/01/25 09:34:32;;;;;;;;;70.25;48.75;;;;;;;;6330603;22;28471;-81
2022/01/25 09:36:57;;;;;;;;;56.67;43.33;;;;;;;;6302650;22;28331;-82
2022/01/25 09:39:22;;;;;;;;;63.00;45.33;;;;;;;;6329838;22;28356;-82
2022/01/25 09:41:48;;;;;;;;;64.33;45.67;;;;;;;;6301584;22;28751;-82
2022/01/25 09:44:15;;;;;;;;;73.25;47.00;;;;;;;;6330308;22;28337;-82
2022/01/25 09:46:40;;;;;;;;;61.50;42.25;;;;;;;;6330499;22;28318;-82
2022/01/25 09:49:06;;;;;;;;;59.25;47.00;;;;;;;;6330318;22;28320;-82
2022/01/25 09:51:32;;;;;;;;;70.50;50.00;;;;;;;;6302070;22;29928;-82
2022/01/25 09:53:57;;;;;;;;;70.50;48.25;;;;;;;;6330438;22;28350;-82
2022/01/25 09:56:22;;;;;;;;;65.67;47.00;;;;;;;;6330767;22;28317;-82
2022/01/25 09:58:49;;;;;;;;;64.00;48.00;;;;;;;;6330182;22;28282;-82
2022/01/25 10:01:15;;;;;;;;;70.75;46.75;;;;;;;;6329900;22;28333;-82
2022/01/25 10:03:43;;;;;;;;;67.25;47.25;;;;;;;;6330375;22;28508;-82
2022/01/25 10:06:13;;;;;;;;;70.00;47.00;;;;;;;;6330613;22;28291;-81
2022/01/25 10:08:38;;;;;;;;;61.25;46.25;;;;;;;;6330393;22;28180;-82
2022/01/25 10:11:05;;;;;;;;;71.50;50.50;;;;;;;;6329760;22;28482;-81
2022/01/25 10:13:30;;;;;;;;;83.00;54.75;;;;;;;;6301687;22;29458;-82
2022/01/25 10:16:03;;;;;;;;;69.67;49.00;;;;;;;;6330598;22;28506;-82
2022/01/25 10:18:43;;;;;;;;;73.75;50.00;;;;;;;;6329975;22;28200;-80
2022/01/25 10:21:14;;;;;;;;;67.25;51.75;;;;;;;;6330447;22;28401;-80
2022/01/25 10:23:41;;;;;;;;;72.00;47.75;;;;;;;;6330276;22;28401;-80
2022/01/25 10:26:06;;;;;;;;;68.75;49.50;;;;;;;;6330291;22;28425;-82
2022/01/25 10:28:32;;;;;;;;;66.25;43.50;;;;;;;;6330338;22;28327;-82
2022/01/25 10:31:05;;;;;;;;;68.25;50.00;;;;;;;;6330169;22;29360;-82
2022/01/25 10:33:35;;;;;;;;;72.75;47.00;;;;;;;;6330391;22;28286;-82
2022/01/25 10:36:14;;;;;;;;;61.50;47.50;;;;;;;;6330080;22;28204;-82
2022/01/25 10:38:40;;;;;;;;;68.75;51.50;;;;;;;;6301441;22;28764;-82
2022/01/25 10:41:10;;;;;;;;;61.75;45.75;;;;;;;;6330156;22;28538;-82
2022/01/25 10:43:37;;;;;;;;;62.25;47.75;;;;;;;;6328834;22;28457;-81
2022/01/25 10:46:13;;;;;;;;;69.25;50.00;;;;;;;;6329833;22;28547;-82
2022/01/25 10:48:39;;;;;;;;;70.25;50.25;;;;;;;;6328607;22;28204;-81
2022/01/25 10:51:09;;;;;;;;;76.75;47.75;;;;;;;;6300155;22;29957;-82
2022/01/25 10:53:35;;;;;;;;;72.00;49.50;;;;;;;;6302114;22;28338;-82
2022/01/25 10:56:01;;;;;;;;;73.25;49.75;;;;;;;;6330257;22;28217;-81
2022/01/25 10:58:27;;;;;;;;;63.00;47.25;;;;;;;;6301773;22;28288;-82
2022/01/25 11:00:52;;;;;;;;;66.00;47.75;;;;;;;;6301366;22;30117;-82
2022/01/25 11:03:25;;;;;;;;;63.75;47.50;;;;;;;;6301968;22;28332;-82
2022/01/25 11:05:51;;;;;;;;;70.50;50.25;;;;;;;;6301605;22;28233;-82
2022/01/25 11:08:18;;;;;;;;;71.00;48.75;;;;;;;;6329306;22;28313;-82
2022/01/25 11:10:52;;;;;;;;;65.00;49.00;;;;;;;;6329076;22;28386;-82
2022/01/25 11:13:38;;;;;;;;;70.75;49.00;;;;;;;;6330342;22;28310;-82
2022/01/25 11:16:05;;;;;;;;;68.25;46.50;;;;;;;;6301619;22;28212;-82
2022/01/25 11:18:30;;;;;;;;;75.00;49.25;;;;;;;;6329496;22;28403;-82
2022/01/25 11:20:57;;;;;;;;;72.50;50.75;;;;;;;;6329455;22;28474;-82
2022/01/25 11:23:22;;;;;;;;;67.75;49.50;;;;;;;;2735023;22;82281523;-82
2022/01/25 11:25:49;;;;;;;;;69.75;48.50;;;;;;;;6329028;22;28464;-81
2022/01/25 11:28:15;;;;;;;;;65.25;45.25;;;;;;;;6301216;22;29823;-80
2022/01/25 11:30:41;;;;;;;;;65.25;48.75;;;;;;;;6301277;22;28573;-80
2022/01/25 11:33:10;;;;;;;;;78.50;52.75;;;;;;;;6329439;22;28392;-80
2022/01/25 11:35:36;;;;;;;;;63.50;46.75;;;;;;;;6329627;22;28217;-82
2022/01/25 11:38:01;;;;;;;;;73.25;52.00;;;;;;;;6329528;22;28562;-82
2022/01/25 11:40:27;;;;;;;;;70.75;51.50;;;;;;;;6329386;22;28199;-82
2022/01/25 11:42:54;;;;;;;;;76.50;52.75;;;;;;;;6329707;22;28228;-82
2022/01/25 11:45:29;;;;;;;;;70.50;48.75;;;;;;;;6329953;22;28491;-80
2022/01/25 11:47:55;;;;;;;;;68.75;47.00;;;;;;;;6328862;22;28340;-80
2022/01/25 11:50:24;;;;;;;;;68.00;48.75;;;;;;;;6301447;22;28804;-80
2022/01/25 11:52:52;;;;;;;;;74.75;49.00;;;;;;;;6329613;22;28302;-80
2022/01/25 11:55:28;;;;;;;;;71.75;47.25;;;;;;;;6300895;22;28402;-80
2022/01/25 11:57:53;;;;;;;;;72.50;45.75;;;;;;;;6301363;22;28708;-84
2022/01/25 12:00:36;;;;;;;;;69.67;50.33;;;;;;;;6329200;22;28421;-82
2022/01/25 12:03:04;;;;;;;;;64.50;45.00;;;;;;;;6301181;22;28376;-83
2022/01/25 12:05:30;;;;;;;;;63.00;45.25;;;;;;;;6329964;22;28250;-83
2022/01/25 12:08:06;;;;;;;;;65.50;49.25;;;;;;;;6329553;22;28425;-83
2022/01/25 12:10:33;;;;;;;;;67.00;48.75;;;;;;;;6301036;22;28532;-83
2022/01/25 12:13:17;;;;;;;;;64.75;48.50;;;;;;;;6329628;22;28404;-83
2022/01/25 12:15:43;;;;;;;;;64.75;48.75;;;;;;;;6329636;22;28554;-83
2022/01/25 12:18:10;;;;;;;;;69.50;51.50;;;;;;;;6328996;22;28471;-83
2022/01/25 12:20:46;;;;;;;;;71.00;51.75;;;;;;;;6329735;22;28519;-83
2022/01/25 12:23:18;;;;;;;;;75.00;49.50;;;;;;;;6329573;22;28263;-83
2022/01/25 12:25:51;;;;;;;;;70.00;50.25;;;;;;;;6329154;22;28377;-81
2022/01/25 12:28:26;;;;;;;;;64.00;49.00;;;;;;;;6300720;22;30075;-81
2022/01/25 12:30:51;;;;;;;;;70.00;50.00;;;;;;;;6329774;22;28681;-80
2022/01/25 12:33:27;;;;;;;;;73.33;49.33;;;;;;;;6329369;22;28375;-80
2022/01/25 12:36:03;;;;;;;;;70.00;48.50;;;;;;;;6330194;22;28506;-80
2022/01/25 12:38:31;;;;;;;;;65.75;45.75;;;;;;;;6302256;22;31437;-80
2022/01/25 12:40:57;;;;;;;;;71.50;53.50;;;;;;;;6330792;22;28234;-80
2022/01/25 12:43:33;;;;;;;;;64.25;50.00;;;;;;;;6330641;22;28168;-80
2022/01/25 12:46:02;;;;;;;;;66.25;50.25;;;;;;;;6302571;22;28721;-80
2022/01/25 12:48:35;;;;;;;;;69.25;50.50;;;;;;;;6330432;22;28446;-80
2022/01/25 12:51:07;;;;;;;;;71.75;52.50;;;;;;;;6302628;22;29473;-81
2022/01/25 12:53:33;;;;;;;;;72.50;52.25;;;;;;;;6330096;22;28199;-81
2022/01/25 12:56:00;;;;;;;;;72.50;49.25;;;;;;;;6330509;22;28166;-81
2022/01/25 12:58:27;;;;;;;;;66.00;43.75;;;;;;;;6330399;22;29147;-81
2022/01/25 13:00:53;;;;;;;;;69.00;49.25;;;;;;;;6330590;22;28386;-81
2022/01/25 13:03:26;;;;;;;;;68.75;47.00;;;;;;;;6330647;22;28374;-81
2022/01/25 13:05:59;;;;;;;;;76.75;51.00;;;;;;;;6302335;22;29068;-81
2022/01/25 13:08:26;;;;;;;;;66.50;48.50;;;;;;;;6302355;22;28678;-81
2022/01/25 13:10:54;;;;;;;;;70.50;47.25;;;;;;;;6302334;22;28637;-82
2022/01/25 13:13:29;;;;;;;;;75.75;52.00;;;;;;;;6330722;22;28363;-82
2022/01/25 13:15:56;;;;;;;;;75.75;48.75;;;;;;;;6330629;22;28314;-81
2022/01/25 13:18:22;;;;;;;;;80.00;51.50;;;;;;;;6330110;22;28254;-81
2022/01/25 13:20:57;;;;;;;;;68.00;48.75;;;;;;;;6302485;22;28622;-81
2022/01/25 13:23:24;;;;;;;;;72.00;50.00;;;;;;;;6302178;22;28261;-81
2022/01/25 13:25:55;;;;;;;;;67.75;49.75;;;;;;;;6302480;22;28588;-81
2022/01/25 13:30:38;;;;;;;;;62.50;44.50;;;;;;;;6330490;22;28510;-81
2022/01/25 13:31:11;;;;;;;;;73.25;50.50;;;;;;;;6307429;22;28542;-81
2022/01/25 13:33:36;;;;;;;;;65.75;47.00;;;;;;;;6330449;22;28590;-81
2022/01/25 13:36:03;;;;;;;;;76.00;53.00;;;;;;;;6330873;22;28421;-81
2022/01/25 13:38:31;;;;;;;;;72.75;50.25;;;;;;;;6330034;22;28326;-81
2022/01/25 13:41:09;;;;;;;;;71.25;50.25;;;;;;;;6330098;22;28561;-81
2022/01/25 13:46:25;;;;;;;;;70.00;50.50;;;;;;;;6330666;22;28636;-82
2022/01/25 13:48:52;;;;;;;;;68.50;49.75;;;;;;;;6330217;22;28467;-82
2022/01/25 13:51:19;;;;;;;;;73.75;53.00;;;;;;;;6330337;22;28271;-81
2022/01/25 13:53:49;;;;;;;;;66.50;47.75;;;;;;;;6330701;22;28266;-81
2022/01/25 13:56:15;;;;;;;;;69.25;50.25;;;;;;;;6330816;22;28563;-82
2022/01/25 13:58:42;;;;;;;;;77.75;50.75;;;;;;;;6329929;22;29414;-82
2022/01/25 14:01:09;;;;;;;;;69.50;51.25;;;;;;;;6299916;22;29150;-81
2022/01/25 14:03:41;;;;;;;;;66.75;49.25;;;;;;;;6299599;22;28616;-81
2022/01/25 14:06:22;;;;;;;;;75.00;50.25;;;;;;;;6300332;22;28423;-81
2022/01/25 14:08:47;;;;;;;;;68.50;46.25;;;;;;;;6328008;22;29255;-84
2022/01/25 14:11:18;;;;;;;;;71.00;48.33;;;;;;;;6328566;22;28710;-82
2022/01/25 14:22:25;;;;;;;;;62.50;46.00;;;;;;;;6330147;22;28238;-82
2022/01/25 14:24:52;;;;;;;;;60.75;45.75;;;;;;;;6329071;22;28380;-82
2022/01/25 14:27:32;;;;;;;;;63.75;46.75;;;;;;;;6329939;22;28257;-82
2022/01/25 14:29:57;;;;;;;;;67.00;48.25;;;;;;;;6329988;22;28330;-82
2022/01/25 14:32:30;;;;;;;;;64.00;47.00;;;;;;;;6330077;22;28322;-82
2022/01/25 14:35:01;;;;;;;;;70.50;49.75;;;;;;;;6330330;22;28311;-82
2022/01/25 14:37:27;;;;;;;;;72.25;48.50;;;;;;;;6330418;22;28191;-82
2022/01/25 14:39:52;;;;;;;;;62.67;44.00;;;;;;;;6329604;22;28359;-82
2022/01/25 14:42:18;;;;;;;;;66.00;45.67;;;;;;;;6330101;22;28491;-82
2022/01/25 14:44:44;;;;;;;;;71.00;49.25;;;;;;;;6302874;22;28307;-81
2022/01/25 14:47:11;;;;;;;;;73.00;49.25;;;;;;;;6330296;22;28310;-82
2022/01/25 14:49:45;;;;;;;;;63.00;47.00;;;;;;;;6301678;22;30488;-82
2022/01/25 14:52:10;;;;;;;;;70.50;49.00;;;;;;;;6330069;22;28457;-80
2022/01/25 14:54:38;;;;;;;;;63.00;49.25;;;;;;;;6300770;22;28358;-80
2022/01/25 14:57:06;;;;;;;;;79.25;56.50;;;;;;;;6329671;22;28401;-79
2022/01/25 14:59:38;;;;;;;;;78.50;52.00;;;;;;;;6328626;22;28347;-81
2022/01/25 15:02:12;;;;;;;;;68.00;49.00;;;;;;;;6329981;22;28511;-80
2022/01/25 15:04:43;;;;;;;;;63.75;47.75;;;;;;;;6329553;22;28389;-82
2022/01/25 15:07:10;;;;;;;;;67.25;48.00;;;;;;;;6329124;22;28377;-82
2022/01/25 15:09:35;;;;;;;;;66.25;47.75;;;;;;;;6328165;22;29402;-81
2022/01/25 15:12:01;;;;;;;;;67.75;46.50;;;;;;;;6301384;22;28493;-81
2022/01/25 15:14:36;;;;;;;;;70.50;50.00;;;;;;;;6329600;22;28388;-81
2022/01/25 15:17:01;;;;;;;;;60.75;41.00;;;;;;;;6329700;22;28285;-81
2022/01/25 15:19:26;;;;;;;;;69.25;49.75;;;;;;;;6329845;22;28448;-81
2022/01/25 15:21:51;;;;;;;;;67.33;45.33;;;;;;;;6301546;22;28527;-81
2022/01/25 15:24:19;;;;;;;;;67.67;44.00;;;;;;;;6329715;22;28476;-82
2022/01/25 15:26:47;;;;;;;;;67.00;48.50;;;;;;;;6327371;22;28477;-81
2022/01/25 15:29:20;;;;;;;;;74.00;48.50;;;;;;;;6301014;22;29249;-82
2022/01/25 15:31:46;;;;;;;;;71.25;52.50;;;;;;;;6329537;22;28188;-81
2022/01/25 15:34:11;;;;;;;;;80.50;54.00;;;;;;;;6329844;22;28314;-81
2022/01/25 15:36:37;;;;;;;;;66.33;48.00;;;;;;;;6329959;22;28256;-81
2022/01/25 15:39:02;;;;;;;;;66.50;46.00;;;;;;;;6328910;22;29127;-81
2022/01/25 15:41:33;;;;;;;;;67.25;47.00;;;;;;;;6330506;22;28165;-82
2022/01/25 15:43:59;;;;;;;;;67.00;48.75;;;;;;;;6330804;22;28365;-83
2022/01/25 15:46:31;;;;;;;;;61.75;45.00;;;;;;;;6302167;22;28485;-82
2022/01/25 15:48:58;;;;;;;;;77.50;49.00;;;;;;;;6328906;22;29255;-81
2022/01/25 15:51:24;;;;;;;;;66.25;46.50;;;;;;;;6329404;22;28721;-81
2022/01/25 15:53:50;;;;;;;;;63.50;45.50;;;;;;;;6330640;22;28481;-81
2022/01/25 15:56:15;;;;;;;;;70.75;49.50;;;;;;;;6331510;22;28485;-81
2022/01/25 15:58:41;;;;;;;;;64.75;46.00;;;;;;;;6332224;22;28455;-80
2022/01/25 16:01:09;;;;;;;;;65.50;48.25;;;;;;;;6337495;22;28295;-80
2022/01/25 16:03:35;;;;;;;;;62.50;45.00;;;;;;;;6303653;22;27808;-81
2022/01/25 16:06:00;;;;;;;;;64.75;45.00;;;;;;;;6307204;22;44676;-82
2022/01/25 16:08:25;;;;;;;;;63.50;42.50;;;;;;;;6293154;22;46774;-81
2022/01/25 16:10:51;;;;;;;;;64.00;49.00;;;;;;;;6319686;22;45346;-81
2022/01/25 16:13:16;;;;;;;;;60.50;43.25;;;;;;;;6321450;22;44870;-80
2022/01/25 16:15:41;;;;;;;;;68.75;46.00;;;;;;;;6321559;22;45271;-81
2022/01/25 16:18:08;;;;;;;;;67.75;46.50;;;;;;;;6290685;22;47041;-80
2022/01/25 16:20:35;;;;;;;;;62.00;47.50;;;;;;;;6310318;22;45749;-81
2022/01/25 16:23:00;;;;;;;;;64.75;44.50;;;;;;;;6308870;22;45635;-81
2022/01/25 16:25:26;;;;;;;;;68.50;46.00;;;;;;;;6279867;22;45705;-81
2022/01/25 16:27:51;;;;;;;;;66.75;45.75;;;;;;;;6308087;22;45333;-81
2022/01/25 16:30:17;;;;;;;;;58.50;43.25;;;;;;;;6318612;22;45566;-81
2022/01/25 16:32:45;;;;;;;;;60.50;43.75;;;;;;;;6280987;22;45522;-81